sensor_id;sensor_type;location;lat;lon;timestamp;temperature;humidity
2389;DHT22;1205;47.984;7.668;2023-04-03T00:00:12;7.30;99.90
2389;DHT22;1205;47.984;7.668;2023-04-03T00:02:38;7.10;99.90
2389;DHT22;1205;47.984;7.668;2023-04-03T00:05:06;7.20;99.90
2389;DHT22;1205;47.984;7.668;2023-04-03T00:07:31;7.20;99.90
2389;DHT22;1205;47.984;7.668;2023-04-03T00:09:57;7.10;99.90
2389;DHT22;1205;47.984;7.668;2023-04-03T00:12:22;7.00;99.90
2389;DHT22;1205;47.984;7.668;2023-04-03T00:14:48;7.00;99.90
2389;DHT22;1205;47.984;7.668;2023-04-03T00:17:13;7.10;99.90
2389;DHT22;1205;47.984;7.668;2023-04-03T00:19:39;7.10;99.90
2389;DHT22;1205;47.984;7.668;2023-04-03T00:22:05;7.10;99.90
2389;DHT22;1205;47.984;7.668;2023-04-03T00:24:31;7.00;99.90
2389;DHT22;1205;47.984;7.668;2023-04-03T00:26:56;7.10;99.90
2389;DHT22;1205;47.984;7.668;2023-04-03T00:29:22;7.00;99.90
2389;DHT22;1205;47.984;7.668;2023-04-03T00:31:47;7.00;99.90
2389;DHT22;1205;47.984;7.668;2023-04-03T00:34:13;7.00;99.90
2389;DHT22;1205;47.984;7.668;2023-04-03T00:36:38;6.70;99.90
2389;DHT22;1205;47.984;7.668;2023-04-03T00:39:04;6.80;99.90
2389;DHT22;1205;47.984;7.668;2023-04-03T00:41:31;6.80;99.90
2389;DHT22;1205;47.984;7.668;2023-04-03T00:43:57;6.70;99.90
2389;DHT22;1205;47.984;7.668;2023-04-03T00:46:22;6.60;99.90
2389;DHT22;1205;47.984;7.668;2023-04-03T00:48:49;6.60;99.90
2389;DHT22;1205;47.984;7.668;2023-04-03T00:51:21;6.60;99.90
2389;DHT22;1205;47.984;7.668;2023-04-03T00:53:58;6.70;99.90
2389;DHT22;1205;47.984;7.668;2023-04-03T00:56:27;6.60;99.90
2389;DHT22;1205;47.984;7.668;2023-04-03T01:01:24;6.60;99.90
2389;DHT22;1205;47.984;7.668;2023-04-03T01:03:50;6.90;99.90
2389;DHT22;1205;47.984;7.668;2023-04-03T01:06:17;7.00;99.90
2389;DHT22;1205;47.984;7.668;2023-04-03T01:08:45;6.80;99.90
2389;DHT22;1205;47.984;7.668;2023-04-03T01:11:12;6.70;99.90
2389;DHT22;1205;47.984;7.668;2023-04-03T01:13:38;6.70;99.90
2389;DHT22;1205;47.984;7.668;2023-04-03T01:16:04;6.60;99.90
2389;DHT22;1205;47.984;7.668;2023-04-03T01:18:31;6.40;99.90
2389;DHT22;1205;47.984;7.668;2023-04-03T01:26:00;6.50;99.90
2389;DHT22;1205;47.984;7.668;2023-04-03T01:28:29;6.40;99.90
2389;DHT22;1205;47.984;7.668;2023-04-03T01:33:35;6.50;99.90
2389;DHT22;1205;47.984;7.668;2023-04-03T01:36:01;6.50;99.90
2389;DHT22;1205;47.984;7.668;2023-04-03T01:38:27;6.40;99.90
2389;DHT22;1205;47.984;7.668;2023-04-03T01:40:52;6.40;99.90
2389;DHT22;1205;47.984;7.668;2023-04-03T01:43:18;6.40;99.90
2389;DHT22;1205;47.984;7.668;2023-04-03T01:45:43;6.40;99.90
2389;DHT22;1205;47.984;7.668;2023-04-03T01:48:09;6.30;99.90
2389;DHT22;1205;47.984;7.668;2023-04-03T01:50:35;6.30;99.90
2389;DHT22;1205;47.984;7.668;2023-04-03T01:53:00;6.20;99.90
2389;DHT22;1205;47.984;7.668;2023-04-03T01:55:26;6.20;99.90
2389;DHT22;1205;47.984;7.668;2023-04-03T01:57:51;6.30;99.90
2389;DHT22;1205;47.984;7.668;2023-04-03T02:00:17;6.20;99.90
2389;DHT22;1205;47.984;7.668;2023-04-03T02:02:43;6.10;99.90
2389;DHT22;1205;47.984;7.668;2023-04-03T02:05:08;6.10;99.90
2389;DHT22;1205;47.984;7.668;2023-04-03T02:07:34;6.20;99.90
2389;DHT22;1205;47.984;7.668;2023-04-03T02:10:00;6.10;99.90
2389;DHT22;1205;47.984;7.668;2023-04-03T02:12:25;6.20;99.90
2389;DHT22;1205;47.984;7.668;2023-04-03T02:14:51;6.10;99.90
2389;DHT22;1205;47.984;7.668;2023-04-03T02:17:17;6.10;99.90
2389;DHT22;1205;47.984;7.668;2023-04-03T02:19:42;6.10;99.90
2389;DHT22;1205;47.984;7.668;2023-04-03T02:22:08;6.20;99.90
2389;DHT22;1205;47.984;7.668;2023-04-03T02:24:33;6.20;99.90
2389;DHT22;1205;47.984;7.668;2023-04-03T02:26:59;6.20;99.90
2389;DHT22;1205;47.984;7.668;2023-04-03T02:29:31;6.10;99.90
2389;DHT22;1205;47.984;7.668;2023-04-03T02:31:57;6.10;99.90
2389;DHT22;1205;47.984;7.668;2023-04-03T02:34:22;6.10;99.90
2389;DHT22;1205;47.984;7.668;2023-04-03T02:36:48;6.10;99.90
2389;DHT22;1205;47.984;7.668;2023-04-03T02:39:13;6.10;99.90
2389;DHT22;1205;47.984;7.668;2023-04-03T02:41:39;6.20;99.90
2389;DHT22;1205;47.984;7.668;2023-04-03T02:44:06;6.20;99.90
2389;DHT22;1205;47.984;7.668;2023-04-03T02:46:32;6.10;99.90
2389;DHT22;1205;47.984;7.668;2023-04-03T02:48:58;6.20;99.90
2389;DHT22;1205;47.984;7.668;2023-04-03T02:51:24;6.10;99.90
2389;DHT22;1205;47.984;7.668;2023-04-03T02:53:50;6.20;99.90
2389;DHT22;1205;47.984;7.668;2023-04-03T02:56:16;6.20;99.90
2389;DHT22;1205;47.984;7.668;2023-04-03T02:58:42;6.20;99.90
2389;DHT22;1205;47.984;7.668;2023-04-03T03:01:08;6.20;99.90
2389;DHT22;1205;47.984;7.668;2023-04-03T03:03:33;6.20;99.90
2389;DHT22;1205;47.984;7.668;2023-04-03T03:06:07;6.20;99.90
2389;DHT22;1205;47.984;7.668;2023-04-03T03:08:33;6.10;99.90
2389;DHT22;1205;47.984;7.668;2023-04-03T03:10:59;6.10;99.90
2389;DHT22;1205;47.984;7.668;2023-04-03T03:13:24;6.20;99.90
2389;DHT22;1205;47.984;7.668;2023-04-03T03:15:50;6.20;99.90
2389;DHT22;1205;47.984;7.668;2023-04-03T03:18:16;6.20;99.90
2389;DHT22;1205;47.984;7.668;2023-04-03T03:20:42;6.10;99.90
2389;DHT22;1205;47.984;7.668;2023-04-03T03:23:07;6.10;99.90
2389;DHT22;1205;47.984;7.668;2023-04-03T03:25:33;6.10;99.90
2389;DHT22;1205;47.984;7.668;2023-04-03T03:27:58;6.00;99.90
2389;DHT22;1205;47.984;7.668;2023-04-03T03:30:24;6.10;99.90
2389;DHT22;1205;47.984;7.668;2023-04-03T03:32:50;6.10;99.90
2389;DHT22;1205;47.984;7.668;2023-04-03T03:35:16;6.10;99.90
2389;DHT22;1205;47.984;7.668;2023-04-03T03:37:41;6.00;99.90
2389;DHT22;1205;47.984;7.668;2023-04-03T03:40:07;6.10;99.90
2389;DHT22;1205;47.984;7.668;2023-04-03T03:42:33;6.00;99.90
2389;DHT22;1205;47.984;7.668;2023-04-03T03:44:58;6.00;99.90
2389;DHT22;1205;47.984;7.668;2023-04-03T03:47:24;6.00;99.90
2389;DHT22;1205;47.984;7.668;2023-04-03T03:49:50;6.00;99.90
2389;DHT22;1205;47.984;7.668;2023-04-03T03:52:16;6.00;99.90
2389;DHT22;1205;47.984;7.668;2023-04-03T03:54:41;6.00;99.90
2389;DHT22;1205;47.984;7.668;2023-04-03T03:57:07;6.00;99.90
2389;DHT22;1205;47.984;7.668;2023-04-03T03:59:32;6.00;99.90
2389;DHT22;1205;47.984;7.668;2023-04-03T04:01:58;6.00;99.90
2389;DHT22;1205;47.984;7.668;2023-04-03T04:04:24;5.90;99.90
2389;DHT22;1205;47.984;7.668;2023-04-03T04:06:49;5.90;99.90
2389;DHT22;1205;47.984;7.668;2023-04-03T04:09:15;5.90;99.90
2389;DHT22;1205;47.984;7.668;2023-04-03T04:11:41;6.00;99.90
2389;DHT22;1205;47.984;7.668;2023-04-03T04:14:07;6.00;99.90
2389;DHT22;1205;47.984;7.668;2023-04-03T04:16:32;5.90;99.90
2389;DHT22;1205;47.984;7.668;2023-04-03T04:18:58;5.80;99.90
2389;DHT22;1205;47.984;7.668;2023-04-03T04:21:23;5.90;99.90
2389;DHT22;1205;47.984;7.668;2023-04-03T04:23:49;6.00;99.90
2389;DHT22;1205;47.984;7.668;2023-04-03T04:26:15;6.00;99.90
2389;DHT22;1205;47.984;7.668;2023-04-03T04:28:40;5.90;99.90
2389;DHT22;1205;47.984;7.668;2023-04-03T04:31:06;5.90;99.90
2389;DHT22;1205;47.984;7.668;2023-04-03T04:33:31;5.90;99.90
2389;DHT22;1205;47.984;7.668;2023-04-03T04:35:57;5.90;99.90
2389;DHT22;1205;47.984;7.668;2023-04-03T04:38:22;5.90;99.90
2389;DHT22;1205;47.984;7.668;2023-04-03T04:40:48;6.00;99.90
2389;DHT22;1205;47.984;7.668;2023-04-03T04:43:14;6.00;99.90
2389;DHT22;1205;47.984;7.668;2023-04-03T04:45:41;6.10;99.90
2389;DHT22;1205;47.984;7.668;2023-04-03T04:48:07;6.00;99.90
2389;DHT22;1205;47.984;7.668;2023-04-03T04:50:32;6.00;99.90
2389;DHT22;1205;47.984;7.668;2023-04-03T04:52:58;6.10;99.90
2389;DHT22;1205;47.984;7.668;2023-04-03T04:55:23;6.10;99.90
2389;DHT22;1205;47.984;7.668;2023-04-03T04:57:49;6.00;99.90
2389;DHT22;1205;47.984;7.668;2023-04-03T05:00:15;6.00;99.90
2389;DHT22;1205;47.984;7.668;2023-04-03T05:02:41;6.10;99.90
2389;DHT22;1205;47.984;7.668;2023-04-03T05:05:07;6.10;99.90
2389;DHT22;1205;47.984;7.668;2023-04-03T05:07:32;6.10;99.90
2389;DHT22;1205;47.984;7.668;2023-04-03T05:09:58;6.10;99.90
2389;DHT22;1205;47.984;7.668;2023-04-03T05:12:24;6.10;99.90
2389;DHT22;1205;47.984;7.668;2023-04-03T05:14:49;6.20;99.90
2389;DHT22;1205;47.984;7.668;2023-04-03T05:17:15;6.20;99.90
2389;DHT22;1205;47.984;7.668;2023-04-03T05:19:41;6.20;99.90
2389;DHT22;1205;47.984;7.668;2023-04-03T05:22:06;6.20;99.90
2389;DHT22;1205;47.984;7.668;2023-04-03T05:24:32;6.20;99.90
2389;DHT22;1205;47.984;7.668;2023-04-03T05:26:58;6.20;99.90
2389;DHT22;1205;47.984;7.668;2023-04-03T05:29:24;6.00;99.90
2389;DHT22;1205;47.984;7.668;2023-04-03T05:31:50;6.10;99.90
2389;DHT22;1205;47.984;7.668;2023-04-03T05:34:16;6.00;99.90
2389;DHT22;1205;47.984;7.668;2023-04-03T05:36:41;5.90;99.90
2389;DHT22;1205;47.984;7.668;2023-04-03T05:39:07;6.00;99.90
2389;DHT22;1205;47.984;7.668;2023-04-03T05:41:33;6.00;99.90
2389;DHT22;1205;47.984;7.668;2023-04-03T05:43:58;6.00;99.90
2389;DHT22;1205;47.984;7.668;2023-04-03T05:46:24;6.00;99.90
2389;DHT22;1205;47.984;7.668;2023-04-03T05:48:50;6.00;99.90
2389;DHT22;1205;47.984;7.668;2023-04-03T05:51:25;5.90;99.90
2389;DHT22;1205;47.984;7.668;2023-04-03T05:54:11;6.00;99.90
2389;DHT22;1205;47.984;7.668;2023-04-03T05:56:39;6.00;99.90
2389;DHT22;1205;47.984;7.668;2023-04-03T05:59:04;6.00;99.90
2389;DHT22;1205;47.984;7.668;2023-04-03T06:01:30;6.00;99.90
2389;DHT22;1205;47.984;7.668;2023-04-03T06:03:56;6.00;99.90
2389;DHT22;1205;47.984;7.668;2023-04-03T06:06:23;6.00;99.90
2389;DHT22;1205;47.984;7.668;2023-04-03T06:08:49;6.00;99.90
2389;DHT22;1205;47.984;7.668;2023-04-03T06:11:15;6.10;99.90
2389;DHT22;1205;47.984;7.668;2023-04-03T06:13:41;6.10;99.90
2389;DHT22;1205;47.984;7.668;2023-04-03T06:16:10;6.10;99.90
2389;DHT22;1205;47.984;7.668;2023-04-03T06:18:37;6.20;99.90
2389;DHT22;1205;47.984;7.668;2023-04-03T06:21:02;6.30;99.90
2389;DHT22;1205;47.984;7.668;2023-04-03T06:23:28;6.30;99.90
2389;DHT22;1205;47.984;7.668;2023-04-03T06:25:54;6.30;99.90
2389;DHT22;1205;47.984;7.668;2023-04-03T06:28:20;6.40;99.90
2389;DHT22;1205;47.984;7.668;2023-04-03T06:30:45;6.40;99.90
2389;DHT22;1205;47.984;7.668;2023-04-03T06:33:11;6.50;99.90
2389;DHT22;1205;47.984;7.668;2023-04-03T06:35:36;6.50;99.90
2389;DHT22;1205;47.984;7.668;2023-04-03T06:38:03;6.60;99.90
2389;DHT22;1205;47.984;7.668;2023-04-03T06:40:34;6.50;99.90
2389;DHT22;1205;47.984;7.668;2023-04-03T06:43:01;6.50;99.90
2389;DHT22;1205;47.984;7.668;2023-04-03T06:45:26;6.50;99.90
2389;DHT22;1205;47.984;7.668;2023-04-03T06:47:53;6.60;99.90
2389;DHT22;1205;47.984;7.668;2023-04-03T06:50:18;6.60;99.90
2389;DHT22;1205;47.984;7.668;2023-04-03T06:52:44;6.70;99.90
2389;DHT22;1205;47.984;7.668;2023-04-03T06:55:11;6.60;99.90
2389;DHT22;1205;47.984;7.668;2023-04-03T06:57:37;6.70;99.90
2389;DHT22;1205;47.984;7.668;2023-04-03T07:00:07;6.80;99.90
2389;DHT22;1205;47.984;7.668;2023-04-03T07:02:34;6.80;99.90
2389;DHT22;1205;47.984;7.668;2023-04-03T07:04:59;6.80;99.90
2389;DHT22;1205;47.984;7.668;2023-04-03T07:07:25;6.90;99.90
2389;DHT22;1205;47.984;7.668;2023-04-03T07:09:51;7.00;99.90
2389;DHT22;1205;47.984;7.668;2023-04-03T07:12:16;7.00;99.90
2389;DHT22;1205;47.984;7.668;2023-04-03T07:14:42;7.10;99.90
2389;DHT22;1205;47.984;7.668;2023-04-03T07:17:08;7.10;99.90
2389;DHT22;1205;47.984;7.668;2023-04-03T07:19:33;6.90;99.90
2389;DHT22;1205;47.984;7.668;2023-04-03T07:21:59;7.00;99.90
2389;DHT22;1205;47.984;7.668;2023-04-03T07:24:25;7.10;99.90
2389;DHT22;1205;47.984;7.668;2023-04-03T07:26:52;7.10;99.90
2389;DHT22;1205;47.984;7.668;2023-04-03T07:29:18;7.10;99.90
2389;DHT22;1205;47.984;7.668;2023-04-03T07:31:44;7.10;99.90
2389;DHT22;1205;47.984;7.668;2023-04-03T07:34:11;7.20;99.90
2389;DHT22;1205;47.984;7.668;2023-04-03T07:36:36;7.20;99.90
2389;DHT22;1205;47.984;7.668;2023-04-03T07:39:03;7.10;99.90
2389;DHT22;1205;47.984;7.668;2023-04-03T07:41:28;7.10;99.90
2389;DHT22;1205;47.984;7.668;2023-04-03T07:43:54;7.30;99.90
2389;DHT22;1205;47.984;7.668;2023-04-03T07:46:22;7.40;99.90
2389;DHT22;1205;47.984;7.668;2023-04-03T07:48:47;7.40;99.90
2389;DHT22;1205;47.984;7.668;2023-04-03T07:51:13;7.40;99.90
2389;DHT22;1205;47.984;7.668;2023-04-03T07:53:39;7.50;99.90
2389;DHT22;1205;47.984;7.668;2023-04-03T07:56:04;7.60;99.90
2389;DHT22;1205;47.984;7.668;2023-04-03T07:58:30;7.70;99.90
2389;DHT22;1205;47.984;7.668;2023-04-03T08:00:56;7.90;99.90
2389;DHT22;1205;47.984;7.668;2023-04-03T08:03:22;7.90;99.90
2389;DHT22;1205;47.984;7.668;2023-04-03T08:05:49;8.00;99.90
2389;DHT22;1205;47.984;7.668;2023-04-03T08:08:20;8.10;99.90
2389;DHT22;1205;47.984;7.668;2023-04-03T08:10:53;8.10;99.90
2389;DHT22;1205;47.984;7.668;2023-04-03T08:13:20;8.20;99.90
2389;DHT22;1205;47.984;7.668;2023-04-03T08:15:46;8.30;99.70
2389;DHT22;1205;47.984;7.668;2023-04-03T08:18:13;8.60;99.80
2389;DHT22;1205;47.984;7.668;2023-04-03T08:20:40;8.60;98.90
2389;DHT22;1205;47.984;7.668;2023-04-03T08:23:06;8.50;98.80
2389;DHT22;1205;47.984;7.668;2023-04-03T08:25:33;8.60;98.40
2389;DHT22;1205;47.984;7.668;2023-04-03T08:27:59;8.70;98.60
2389;DHT22;1205;47.984;7.668;2023-04-03T08:30:24;8.90;97.70
2389;DHT22;1205;47.984;7.668;2023-04-03T08:32:50;8.90;97.20
2389;DHT22;1205;47.984;7.668;2023-04-03T08:35:16;8.80;96.50
2389;DHT22;1205;47.984;7.668;2023-04-03T08:37:41;8.70;96.70
2389;DHT22;1205;47.984;7.668;2023-04-03T08:40:12;8.70;96.80
2389;DHT22;1205;47.984;7.668;2023-04-03T08:42:45;8.80;96.80
2389;DHT22;1205;47.984;7.668;2023-04-03T08:45:26;8.80;96.40
2389;DHT22;1205;47.984;7.668;2023-04-03T08:48:08;9.10;96.00
2389;DHT22;1205;47.984;7.668;2023-04-03T08:50:40;8.90;95.80
2389;DHT22;1205;47.984;7.668;2023-04-03T08:53:15;9.00;95.60
2389;DHT22;1205;47.984;7.668;2023-04-03T08:55:46;9.10;95.20
2389;DHT22;1205;47.984;7.668;2023-04-03T08:58:24;9.20;95.30
2389;DHT22;1205;47.984;7.668;2023-04-03T09:01:18;9.20;94.50
2389;DHT22;1205;47.984;7.668;2023-04-03T09:03:44;9.30;94.40
2389;DHT22;1205;47.984;7.668;2023-04-03T09:06:20;9.20;94.40
2389;DHT22;1205;47.984;7.668;2023-04-03T09:15:02;9.20;94.50
2389;DHT22;1205;47.984;7.668;2023-04-03T09:20:16;9.20;94.30
2389;DHT22;1205;47.984;7.668;2023-04-03T09:22:43;9.40;95.80
2389;DHT22;1205;47.984;7.668;2023-04-03T09:25:18;10.20;99.90
2389;DHT22;1205;47.984;7.668;2023-04-03T09:27:46;10.70;97.60
2389;DHT22;1205;47.984;7.668;2023-04-03T09:30:16;10.50;94.20
2389;DHT22;1205;47.984;7.668;2023-04-03T09:32:47;10.90;93.60
2389;DHT22;1205;47.984;7.668;2023-04-03T09:35:39;11.10;93.40
2389;DHT22;1205;47.984;7.668;2023-04-03T09:40:46;10.30;91.80
2389;DHT22;1205;47.984;7.668;2023-04-03T09:43:28;10.00;92.00
2389;DHT22;1205;47.984;7.668;2023-04-03T09:45:54;10.00;91.70
2389;DHT22;1205;47.984;7.668;2023-04-03T09:48:23;10.00;91.60
2389;DHT22;1205;47.984;7.668;2023-04-03T09:53:41;9.60;92.10
2389;DHT22;1205;47.984;7.668;2023-04-03T09:58:50;9.80;91.90
2389;DHT22;1205;47.984;7.668;2023-04-03T10:01:28;9.90;91.80
2389;DHT22;1205;47.984;7.668;2023-04-03T10:04:05;9.90;91.80
2389;DHT22;1205;47.984;7.668;2023-04-03T10:06:33;9.60;90.90
2389;DHT22;1205;47.984;7.668;2023-04-03T10:09:04;9.80;91.20
2389;DHT22;1205;47.984;7.668;2023-04-03T10:11:30;9.60;90.60
2389;DHT22;1205;47.984;7.668;2023-04-03T10:14:01;9.60;90.10
2389;DHT22;1205;47.984;7.668;2023-04-03T10:16:46;9.50;89.30
2389;DHT22;1205;47.984;7.668;2023-04-03T10:21:50;9.00;90.20
2389;DHT22;1205;47.984;7.668;2023-04-03T10:24:28;9.10;90.70
2389;DHT22;1205;47.984;7.668;2023-04-03T10:27:02;9.10;90.50
2389;DHT22;1205;47.984;7.668;2023-04-03T10:29:40;9.10;90.90
2389;DHT22;1205;47.984;7.668;2023-04-03T10:34:57;9.40;90.60
2389;DHT22;1205;47.984;7.668;2023-04-03T10:37:29;9.60;90.40
2389;DHT22;1205;47.984;7.668;2023-04-03T10:47:50;9.50;89.10
2389;DHT22;1205;47.984;7.668;2023-04-03T10:56:19;10.00;88.40
2389;DHT22;1205;47.984;7.668;2023-04-03T10:58:54;9.70;87.40
2389;DHT22;1205;47.984;7.668;2023-04-03T11:01:26;9.70;86.80
2389;DHT22;1205;47.984;7.668;2023-04-03T11:03:57;9.70;87.80
2389;DHT22;1205;47.984;7.668;2023-04-03T11:06:31;9.80;88.00
2389;DHT22;1205;47.984;7.668;2023-04-03T11:09:32;9.80;89.30
2389;DHT22;1205;47.984;7.668;2023-04-03T11:12:28;10.00;88.30
2389;DHT22;1205;47.984;7.668;2023-04-03T11:14:53;10.20;88.90
2389;DHT22;1205;47.984;7.668;2023-04-03T11:17:27;10.20;86.60
2389;DHT22;1205;47.984;7.668;2023-04-03T11:22:32;10.20;86.30
2389;DHT22;1205;47.984;7.668;2023-04-03T11:25:21;10.30;88.10
2389;DHT22;1205;47.984;7.668;2023-04-03T11:30:25;10.30;86.80
2389;DHT22;1205;47.984;7.668;2023-04-03T11:35:32;10.20;87.80
2389;DHT22;1205;47.984;7.668;2023-04-03T11:38:00;10.30;89.00
2389;DHT22;1205;47.984;7.668;2023-04-03T11:40:30;10.20;87.80
2389;DHT22;1205;47.984;7.668;2023-04-03T11:43:33;10.50;89.70
2389;DHT22;1205;47.984;7.668;2023-04-03T11:45:59;10.50;87.00
2389;DHT22;1205;47.984;7.668;2023-04-03T11:51:02;10.50;86.30
2389;DHT22;1205;47.984;7.668;2023-04-03T11:53:47;10.50;87.80
2389;DHT22;1205;47.984;7.668;2023-04-03T12:01:49;10.70;85.80
2389;DHT22;1205;47.984;7.668;2023-04-03T12:04:17;10.70;84.50
2389;DHT22;1205;47.984;7.668;2023-04-03T12:11:55;10.80;86.20
2389;DHT22;1205;47.984;7.668;2023-04-03T12:14:24;10.70;92.60
2389;DHT22;1205;47.984;7.668;2023-04-03T12:16:52;10.50;84.90
2389;DHT22;1205;47.984;7.668;2023-04-03T12:19:37;10.70;86.00
2389;DHT22;1205;47.984;7.668;2023-04-03T12:22:13;10.60;85.00
2389;DHT22;1205;47.984;7.668;2023-04-03T12:24:44;10.60;85.10
2389;DHT22;1205;47.984;7.668;2023-04-03T12:32:43;10.50;85.70
2389;DHT22;1205;47.984;7.668;2023-04-03T12:38:23;10.40;85.90
2389;DHT22;1205;47.984;7.668;2023-04-03T12:46:17;10.50;86.50
2389;DHT22;1205;47.984;7.668;2023-04-03T12:51:22;10.50;86.30
2389;DHT22;1205;47.984;7.668;2023-04-03T12:54:41;10.60;87.00
2389;DHT22;1205;47.984;7.668;2023-04-03T12:56:42;10.30;86.00
2389;DHT22;1205;47.984;7.668;2023-04-03T12:59:24;10.30;86.70
2389;DHT22;1205;47.984;7.668;2023-04-03T13:01:56;10.30;86.80
2389;DHT22;1205;47.984;7.668;2023-04-03T13:04:22;10.10;86.30
2389;DHT22;1205;47.984;7.668;2023-04-03T13:06:48;10.10;87.50
2389;DHT22;1205;47.984;7.668;2023-04-03T13:09:25;10.00;88.00
2389;DHT22;1205;47.984;7.668;2023-04-03T13:12:08;10.10;88.30
2389;DHT22;1205;47.984;7.668;2023-04-03T13:14:35;10.20;87.50
2389;DHT22;1205;47.984;7.668;2023-04-03T13:17:15;10.30;87.20
2389;DHT22;1205;47.984;7.668;2023-04-03T13:19:43;10.20;86.60
2389;DHT22;1205;47.984;7.668;2023-04-03T13:24:46;10.10;88.40
2389;DHT22;1205;47.984;7.668;2023-04-03T13:27:14;10.10;87.60
2389;DHT22;1205;47.984;7.668;2023-04-03T13:29:40;10.20;87.30
2389;DHT22;1205;47.984;7.668;2023-04-03T13:32:06;10.40;87.80
2389;DHT22;1205;47.984;7.668;2023-04-03T13:34:41;10.50;87.30
2389;DHT22;1205;47.984;7.668;2023-04-03T13:37:20;10.40;87.40
2389;DHT22;1205;47.984;7.668;2023-04-03T13:39:45;10.50;88.30
2389;DHT22;1205;47.984;7.668;2023-04-03T13:42:23;10.70;87.40
2389;DHT22;1205;47.984;7.668;2023-04-03T13:45:19;10.40;86.20
2389;DHT22;1205;47.984;7.668;2023-04-03T13:47:47;10.40;86.90
2389;DHT22;1205;47.984;7.668;2023-04-03T13:50:17;10.30;87.40
2389;DHT22;1205;47.984;7.668;2023-04-03T13:55:29;10.20;87.10
2389;DHT22;1205;47.984;7.668;2023-04-03T13:58:20;10.10;87.00
2389;DHT22;1205;47.984;7.668;2023-04-03T14:03:52;9.80;87.40
2389;DHT22;1205;47.984;7.668;2023-04-03T14:06:18;9.90;88.50
2389;DHT22;1205;47.984;7.668;2023-04-03T14:08:45;9.90;87.20
2389;DHT22;1205;47.984;7.668;2023-04-03T14:11:24;9.90;87.30
2389;DHT22;1205;47.984;7.668;2023-04-03T14:13:50;9.90;87.20
2389;DHT22;1205;47.984;7.668;2023-04-03T14:16:26;10.00;86.70
2389;DHT22;1205;47.984;7.668;2023-04-03T14:18:52;10.00;85.50
2389;DHT22;1205;47.984;7.668;2023-04-03T14:21:20;10.10;86.20
2389;DHT22;1205;47.984;7.668;2023-04-03T14:23:46;10.10;86.50
2389;DHT22;1205;47.984;7.668;2023-04-03T14:26:18;10.00;86.90
2389;DHT22;1205;47.984;7.668;2023-04-03T14:28:46;10.20;87.60
2389;DHT22;1205;47.984;7.668;2023-04-03T14:31:14;10.10;87.00
2389;DHT22;1205;47.984;7.668;2023-04-03T14:33:40;10.00;86.60
2389;DHT22;1205;47.984;7.668;2023-04-03T14:36:22;10.20;86.40
2389;DHT22;1205;47.984;7.668;2023-04-03T14:38:48;10.10;86.20
2389;DHT22;1205;47.984;7.668;2023-04-03T14:41:16;10.20;87.20
2389;DHT22;1205;47.984;7.668;2023-04-03T14:43:43;10.20;86.70
2389;DHT22;1205;47.984;7.668;2023-04-03T14:46:17;10.20;86.90
2389;DHT22;1205;47.984;7.668;2023-04-03T14:48:44;10.10;85.20
2389;DHT22;1205;47.984;7.668;2023-04-03T14:51:14;9.80;86.00
2389;DHT22;1205;47.984;7.668;2023-04-03T14:53:41;9.80;88.00
2389;DHT22;1205;47.984;7.668;2023-04-03T14:56:16;9.80;87.50
2389;DHT22;1205;47.984;7.668;2023-04-03T14:58:43;9.90;88.80
2389;DHT22;1205;47.984;7.668;2023-04-03T15:01:10;9.90;86.80
2389;DHT22;1205;47.984;7.668;2023-04-03T15:03:37;9.90;87.30
2389;DHT22;1205;47.984;7.668;2023-04-03T15:06:03;9.80;87.00
2389;DHT22;1205;47.984;7.668;2023-04-03T15:08:29;9.70;87.50
2389;DHT22;1205;47.984;7.668;2023-04-03T15:10:55;9.80;87.40
2389;DHT22;1205;47.984;7.668;2023-04-03T15:13:22;9.90;87.00
2389;DHT22;1205;47.984;7.668;2023-04-03T15:15:49;9.70;86.50
2389;DHT22;1205;47.984;7.668;2023-04-03T15:18:19;9.70;87.80
2389;DHT22;1205;47.984;7.668;2023-04-03T15:20:45;9.60;87.70
2389;DHT22;1205;47.984;7.668;2023-04-03T15:23:13;9.70;88.00
2389;DHT22;1205;47.984;7.668;2023-04-03T15:25:44;9.70;87.20
2389;DHT22;1205;47.984;7.668;2023-04-03T15:30:48;9.50;86.40
2389;DHT22;1205;47.984;7.668;2023-04-03T15:33:15;9.50;86.00
2389;DHT22;1205;47.984;7.668;2023-04-03T15:35:41;9.50;86.40
2389;DHT22;1205;47.984;7.668;2023-04-03T15:38:07;9.50;86.60
2389;DHT22;1205;47.984;7.668;2023-04-03T15:40:32;9.40;86.70
2389;DHT22;1205;47.984;7.668;2023-04-03T15:42:58;9.30;86.40
2389;DHT22;1205;47.984;7.668;2023-04-03T15:45:23;9.40;87.10
2389;DHT22;1205;47.984;7.668;2023-04-03T15:47:49;9.30;86.20
2389;DHT22;1205;47.984;7.668;2023-04-03T15:50:15;9.30;86.60
2389;DHT22;1205;47.984;7.668;2023-04-03T15:52:41;9.30;86.80
2389;DHT22;1205;47.984;7.668;2023-04-03T15:55:06;9.10;87.70
2389;DHT22;1205;47.984;7.668;2023-04-03T15:57:32;9.20;86.70
2389;DHT22;1205;47.984;7.668;2023-04-03T15:59:58;9.20;86.60
2389;DHT22;1205;47.984;7.668;2023-04-03T16:02:23;9.30;86.80
2389;DHT22;1205;47.984;7.668;2023-04-03T16:04:53;9.20;87.00
2389;DHT22;1205;47.984;7.668;2023-04-03T16:07:19;9.30;87.30
2389;DHT22;1205;47.984;7.668;2023-04-03T16:09:44;9.30;86.70
2389;DHT22;1205;47.984;7.668;2023-04-03T16:12:10;9.30;86.80
2389;DHT22;1205;47.984;7.668;2023-04-03T16:14:36;9.20;87.10
2389;DHT22;1205;47.984;7.668;2023-04-03T16:17:01;9.20;87.00
2389;DHT22;1205;47.984;7.668;2023-04-03T16:19:27;9.30;85.80
2389;DHT22;1205;47.984;7.668;2023-04-03T16:21:55;9.20;86.70
2389;DHT22;1205;47.984;7.668;2023-04-03T16:24:21;9.10;86.30
2389;DHT22;1205;47.984;7.668;2023-04-03T16:26:46;8.90;86.50
2389;DHT22;1205;47.984;7.668;2023-04-03T16:29:12;9.00;87.30
2389;DHT22;1205;47.984;7.668;2023-04-03T16:31:37;9.10;87.40
2389;DHT22;1205;47.984;7.668;2023-04-03T16:34:03;9.00;86.60
2389;DHT22;1205;47.984;7.668;2023-04-03T16:36:28;9.00;86.50
2389;DHT22;1205;47.984;7.668;2023-04-03T16:38:54;8.90;87.30
2389;DHT22;1205;47.984;7.668;2023-04-03T16:41:20;8.80;86.40
2389;DHT22;1205;47.984;7.668;2023-04-03T16:43:45;8.90;87.20
2389;DHT22;1205;47.984;7.668;2023-04-03T16:46:11;8.80;86.90
2389;DHT22;1205;47.984;7.668;2023-04-03T16:48:36;8.80;86.60
2389;DHT22;1205;47.984;7.668;2023-04-03T16:51:02;8.60;87.10
2389;DHT22;1205;47.984;7.668;2023-04-03T16:53:28;8.70;87.00
2389;DHT22;1205;47.984;7.668;2023-04-03T16:55:54;8.60;87.10
2389;DHT22;1205;47.984;7.668;2023-04-03T16:58:20;8.60;86.80
2389;DHT22;1205;47.984;7.668;2023-04-03T17:00:45;8.60;87.50
2389;DHT22;1205;47.984;7.668;2023-04-03T17:03:12;8.60;87.90
2389;DHT22;1205;47.984;7.668;2023-04-03T17:05:38;8.60;88.00
2389;DHT22;1205;47.984;7.668;2023-04-03T17:08:04;8.60;88.10
2389;DHT22;1205;47.984;7.668;2023-04-03T17:10:29;8.50;86.60
2389;DHT22;1205;47.984;7.668;2023-04-03T17:12:55;8.40;85.80
2389;DHT22;1205;47.984;7.668;2023-04-03T17:15:21;8.40;85.30
2389;DHT22;1205;47.984;7.668;2023-04-03T17:17:48;8.20;84.30
2389;DHT22;1205;47.984;7.668;2023-04-03T17:20:14;8.20;85.00
2389;DHT22;1205;47.984;7.668;2023-04-03T17:22:40;8.10;85.30
2389;DHT22;1205;47.984;7.668;2023-04-03T17:25:06;8.20;85.30
2389;DHT22;1205;47.984;7.668;2023-04-03T17:27:32;8.30;87.20
2389;DHT22;1205;47.984;7.668;2023-04-03T17:29:58;8.30;87.90
2389;DHT22;1205;47.984;7.668;2023-04-03T17:32:24;8.30;88.00
2389;DHT22;1205;47.984;7.668;2023-04-03T17:34:50;8.30;87.90
2389;DHT22;1205;47.984;7.668;2023-04-03T17:37:16;8.20;87.50
2389;DHT22;1205;47.984;7.668;2023-04-03T17:39:41;8.20;86.90
2389;DHT22;1205;47.984;7.668;2023-04-03T17:42:07;8.10;86.80
2389;DHT22;1205;47.984;7.668;2023-04-03T17:44:33;8.20;87.00
2389;DHT22;1205;47.984;7.668;2023-04-03T17:46:58;8.10;86.20
2389;DHT22;1205;47.984;7.668;2023-04-03T17:49:24;8.10;86.80
2389;DHT22;1205;47.984;7.668;2023-04-03T17:51:50;8.10;87.50
2389;DHT22;1205;47.984;7.668;2023-04-03T17:54:15;8.10;87.70